createdAt,value
2017-07-25T00:00:05.869Z,0
2017-07-25T00:01:15.228Z,0
2017-07-25T00:02:24.108Z,0
2017-07-25T00:03:33.637Z,0
2017-07-25T00:04:43.162Z,0
2017-07-25T00:05:52.037Z,0
2017-07-25T00:07:01.391Z,0
2017-07-25T00:08:10.601Z,0
2017-07-25T00:09:20.130Z,0
2017-07-25T00:10:29.984Z,0
2017-07-25T00:11:38.882Z,0
2017-07-25T00:12:48.287Z,0
2017-07-25T00:13:57.813Z,0
2017-07-25T00:15:07.344Z,0
2017-07-25T00:16:17.524Z,0
2017-07-25T00:17:27.376Z,0
2017-07-25T00:18:36.728Z,0
2017-07-25T00:19:45.938Z,0
2017-07-25T00:20:55.144Z,0
2017-07-25T00:22:04.347Z,0
2017-07-25T00:23:13.875Z,0
2017-07-25T00:24:23.875Z,0
2017-07-25T00:25:33.403Z,0
2017-07-25T00:26:42.610Z,0
2017-07-25T00:27:51.818Z,0
2017-07-25T00:29:00.708Z,0
2017-07-25T00:30:10.254Z,0
2017-07-25T00:31:19.793Z,0
2017-07-25T00:32:29.643Z,0
2017-07-25T00:33:38.850Z,0
2017-07-25T00:34:48.055Z,0
2017-07-25T00:35:57.645Z,0
2017-07-25T00:37:06.526Z,0
2017-07-25T00:38:16.054Z,0
2017-07-25T00:39:25.264Z,0
2017-07-25T00:40:34.470Z,0
2017-07-25T00:41:44.295Z,0
2017-07-25T00:42:53.179Z,0
2017-07-25T00:44:02.068Z,0
2017-07-25T00:45:11.271Z,0
2017-07-25T00:46:20.158Z,0
2017-07-25T00:47:29.514Z,0
2017-07-25T00:48:39.364Z,0
2017-07-25T00:49:48.890Z,0
2017-07-25T00:50:58.105Z,0
2017-07-25T00:52:07.318Z,0
2017-07-25T00:53:17.223Z,0
2017-07-25T00:54:26.426Z,0
2017-07-25T00:55:36.272Z,0
2017-07-25T00:56:45.480Z,0
2017-07-25T00:57:54.680Z,0
2017-07-25T00:59:04.358Z,0
2017-07-25T01:00:13.886Z,0
2017-07-25T01:01:23.092Z,0
2017-07-25T01:02:32.293Z,0
2017-07-25T01:03:41.492Z,0
2017-07-25T01:04:50.995Z,0
2017-07-25T01:05:59.874Z,0
2017-07-25T01:07:08.760Z,0
2017-07-25T01:08:18.610Z,0
2017-07-25T01:09:28.138Z,0
2017-07-25T01:10:38.138Z,0
2017-07-25T01:11:48.011Z,0
2017-07-25T01:12:57.545Z,0
2017-07-25T01:14:07.092Z,0
2017-07-25T01:15:15.974Z,0
2017-07-25T01:16:25.333Z,0
2017-07-25T01:17:34.535Z,0
2017-07-25T01:18:44.068Z,0
2017-07-25T01:19:53.601Z,0
2017-07-25T01:21:03.128Z,0
2017-07-25T01:22:12.806Z,0
2017-07-25T01:23:22.022Z,0
2017-07-25T01:24:31.875Z,0
2017-07-25T01:25:41.092Z,0
2017-07-25T01:26:50.296Z,0
2017-07-25T01:27:59.808Z,0
2017-07-25T01:29:09.345Z,0
2017-07-25T01:30:18.882Z,0
2017-07-25T01:31:28.094Z,0
2017-07-25T01:32:37.296Z,0
2017-07-25T01:33:46.822Z,0
2017-07-25T01:34:55.704Z,0
2017-07-25T01:36:05.552Z,0
2017-07-25T01:37:15.082Z,0
2017-07-25T01:38:24.289Z,0
2017-07-25T01:39:33.318Z,0
2017-07-25T01:40:42.523Z,0
2017-07-25T01:41:52.049Z,0
2017-07-25T01:43:00.928Z,0
2017-07-25T01:44:10.458Z,0
2017-07-25T01:45:19.489Z,0
2017-07-25T01:46:28.700Z,0
2017-07-25T01:47:37.907Z,0
2017-07-25T01:48:47.434Z,0
2017-07-25T01:49:56.955Z,0
2017-07-25T01:51:06.358Z,0
2017-07-25T01:52:15.566Z,0
2017-07-25T01:53:24.769Z,0
2017-07-25T01:54:33.976Z,0
2017-07-25T01:55:43.179Z,0
2017-07-25T01:56:53.007Z,0
2017-07-25T01:58:02.218Z,0
2017-07-25T01:59:12.066Z,0
2017-07-25T02:00:21.595Z,0
2017-07-25T02:01:30.492Z,0
2017-07-25T02:02:40.218Z,0
2017-07-25T02:03:49.103Z,0
2017-07-25T02:04:58.316Z,0
2017-07-25T02:06:07.849Z,0
2017-07-25T02:07:17.374Z,0
2017-07-25T02:08:26.404Z,0
2017-07-25T02:09:35.615Z,0
2017-07-25T02:10:45.143Z,0
2017-07-25T02:11:54.346Z,0
2017-07-25T02:13:03.879Z,0
2017-07-25T02:14:13.706Z,0
2017-07-25T02:15:22.587Z,0
2017-07-25T02:16:31.791Z,0
2017-07-25T02:17:41.642Z,0
2017-07-25T02:18:50.845Z,0
2017-07-25T02:20:00.196Z,0
2017-07-25T02:21:09.722Z,0
2017-07-25T02:22:18.929Z,0
2017-07-25T02:23:27.809Z,0
2017-07-25T02:24:37.015Z,0
2017-07-25T02:25:46.268Z,0
2017-07-25T02:26:55.154Z,0
2017-07-25T02:28:04.036Z,0
2017-07-25T02:29:13.573Z,0
2017-07-25T02:30:23.428Z,0
2017-07-25T02:31:33.583Z,0
2017-07-25T02:32:43.449Z,0
2017-07-25T02:33:52.671Z,0
2017-07-25T02:35:02.213Z,0
2017-07-25T02:36:12.069Z,0
2017-07-25T02:37:21.748Z,0
2017-07-25T02:38:30.950Z,0
2017-07-25T02:39:40.482Z,0
2017-07-25T02:40:50.659Z,0
2017-07-25T02:42:00.185Z,0
2017-07-25T02:43:10.051Z,0
2017-07-25T02:44:19.269Z,0
2017-07-25T02:45:28.801Z,0
2017-07-25T02:46:38.650Z,0
2017-07-25T02:47:47.534Z,0
2017-07-25T02:48:57.488Z,0
2017-07-25T02:50:07.666Z,0
2017-07-25T02:51:17.517Z,0
2017-07-25T02:52:26.725Z,0
2017-07-25T02:53:35.941Z,0
2017-07-25T02:54:45.618Z,0
2017-07-25T02:55:54.822Z,0
2017-07-25T02:57:04.352Z,0
2017-07-25T02:58:14.213Z,0
2017-07-25T02:59:23.416Z,0
2017-07-25T03:00:33.038Z,0
2017-07-25T03:01:42.246Z,0
2017-07-25T03:02:51.451Z,0
2017-07-25T03:04:00.989Z,0
2017-07-25T03:05:10.521Z,0
2017-07-25T03:06:20.048Z,0
2017-07-25T03:07:28.931Z,0
2017-07-25T03:08:38.144Z,0
2017-07-25T03:09:47.364Z,4
2017-07-25T03:10:56.896Z,4
2017-07-25T03:12:06.155Z,4
2017-07-25T03:13:15.688Z,4
2017-07-25T03:14:25.240Z,4
2017-07-25T03:15:35.093Z,4
2017-07-25T03:16:44.299Z,4
2017-07-25T03:17:53.756Z,8
2017-07-25T03:19:03.283Z,4
2017-07-25T03:20:12.812Z,8
2017-07-25T03:21:22.030Z,8
2017-07-25T03:22:30.908Z,8
2017-07-25T03:23:40.858Z,8
2017-07-25T03:24:50.707Z,12
2017-07-25T03:25:59.601Z,12
2017-07-25T03:27:09.126Z,12
2017-07-25T03:28:18.336Z,12
2017-07-25T03:29:27.691Z,16
2017-07-25T03:30:37.226Z,16
2017-07-25T03:31:46.757Z,16
2017-07-25T03:32:55.967Z,20
2017-07-25T03:34:05.512Z,24
2017-07-25T03:35:15.337Z,24
2017-07-25T03:36:24.544Z,24
2017-07-25T03:37:34.066Z,24
2017-07-25T03:38:43.269Z,24
2017-07-25T03:39:52.473Z,28
2017-07-25T03:41:02.373Z,28
2017-07-25T03:42:11.633Z,36
2017-07-25T03:43:20.514Z,32
2017-07-25T03:44:30.043Z,44
2017-07-25T03:45:39.890Z,44
2017-07-25T03:46:49.741Z,44
2017-07-25T03:47:59.912Z,48
2017-07-25T03:49:08.797Z,52
2017-07-25T03:50:17.999Z,56
2017-07-25T03:51:27.202Z,56
2017-07-25T03:52:36.413Z,60
2017-07-25T03:53:45.296Z,68
2017-07-25T03:54:54.821Z,72
2017-07-25T03:56:04.023Z,72
2017-07-25T03:57:13.229Z,76
2017-07-25T03:58:22.434Z,80
2017-07-25T03:59:31.640Z,92
2017-07-25T04:00:41.174Z,104
2017-07-25T04:01:50.058Z,100
2017-07-25T04:02:59.587Z,116
2017-07-25T04:04:08.948Z,124
2017-07-25T04:05:18.151Z,124
2017-07-25T04:06:27.379Z,116
2017-07-25T04:07:36.583Z,116
2017-07-25T04:08:45.790Z,120
2017-07-25T04:09:54.822Z,128
2017-07-25T04:11:04.031Z,136
2017-07-25T04:12:13.233Z,152
2017-07-25T04:13:22.116Z,152
2017-07-25T04:14:31.006Z,160
2017-07-25T04:15:40.538Z,144
2017-07-25T04:16:49.738Z,152
2017-07-25T04:17:58.940Z,164
2017-07-25T04:19:08.475Z,184
2017-07-25T04:20:17.696Z,196
2017-07-25T04:21:27.845Z,200
2017-07-25T04:22:37.374Z,216
2017-07-25T04:23:47.225Z,220
2017-07-25T04:24:56.108Z,224
2017-07-25T04:26:05.631Z,220
2017-07-25T04:27:14.760Z,248
2017-07-25T04:28:24.614Z,244
2017-07-25T04:29:34.138Z,272
2017-07-25T04:30:43.662Z,244
2017-07-25T04:31:52.865Z,284
2017-07-25T04:33:02.494Z,308
2017-07-25T04:34:11.703Z,320
2017-07-25T04:35:20.588Z,332
2017-07-25T04:36:30.437Z,340
2017-07-25T04:37:39.643Z,336
2017-07-25T04:38:48.846Z,340
2017-07-25T04:39:58.373Z,348
2017-07-25T04:41:07.583Z,356
2017-07-25T04:42:16.791Z,364
2017-07-25T04:43:26.328Z,376
2017-07-25T04:44:35.312Z,388
2017-07-25T04:45:44.516Z,392
2017-07-25T04:46:53.395Z,392
2017-07-25T04:48:03.248Z,392
2017-07-25T04:49:12.134Z,392
2017-07-25T04:50:21.061Z,396
2017-07-25T04:51:30.585Z,412
2017-07-25T04:52:39.465Z,432
2017-07-25T04:53:49.326Z,456
2017-07-25T04:54:58.852Z,464
2017-07-25T04:56:07.828Z,480
2017-07-25T04:57:16.722Z,504
2017-07-25T04:58:25.604Z,532
2017-07-25T04:59:34.811Z,556
2017-07-25T05:00:43.710Z,580
2017-07-25T05:01:53.294Z,608
2017-07-25T05:03:02.504Z,584
2017-07-25T05:04:12.049Z,520
2017-07-25T05:05:20.939Z,580
2017-07-25T05:06:30.140Z,552
2017-07-25T05:07:39.821Z,480
2017-07-25T05:08:49.374Z,444
2017-07-25T05:09:58.582Z,412
2017-07-25T05:11:07.788Z,388
2017-07-25T05:12:17.334Z,452
2017-07-25T05:13:26.416Z,500
2017-07-25T05:14:35.617Z,576
2017-07-25T05:15:44.824Z,588
2017-07-25T05:16:54.056Z,528
2017-07-25T05:18:03.264Z,612
2017-07-25T05:19:12.892Z,580
2017-07-25T05:20:22.102Z,612
2017-07-25T05:21:31.636Z,612
2017-07-25T05:22:40.515Z,752
2017-07-25T05:23:50.044Z,692
2017-07-25T05:24:59.228Z,644
2017-07-25T05:26:08.763Z,592
2017-07-25T05:27:17.977Z,536
2017-07-25T05:28:27.509Z,524
2017-07-25T05:29:36.719Z,516
2017-07-25T05:30:46.553Z,696
2017-07-25T05:31:55.437Z,868
2017-07-25T05:33:04.963Z,960
2017-07-25T05:34:14.817Z,1044
2017-07-25T05:35:24.033Z,1028
2017-07-25T05:36:33.441Z,1048
2017-07-25T05:37:42.323Z,1052
2017-07-25T05:38:51.847Z,1084
2017-07-25T05:40:01.056Z,1044
2017-07-25T05:41:10.923Z,1112
2017-07-25T05:42:20.284Z,1204
2017-07-25T05:43:29.495Z,1296
2017-07-25T05:44:38.380Z,1416
2017-07-25T05:45:47.582Z,1532
2017-07-25T05:46:56.791Z,1668
2017-07-25T05:48:06.000Z,1776
2017-07-25T05:49:14.882Z,1876
2017-07-25T05:50:24.409Z,1940
2017-07-25T05:51:33.288Z,1996
2017-07-25T05:52:42.498Z,2012
2017-07-25T05:53:51.808Z,2056
2017-07-25T05:55:01.042Z,2092
2017-07-25T05:56:10.257Z,2084
2017-07-25T05:57:19.139Z,2068
2017-07-25T05:58:28.020Z,2076
2017-07-25T05:59:37.559Z,2116
2017-07-25T06:00:46.761Z,2140
2017-07-25T06:01:55.969Z,2160
2017-07-25T06:03:05.496Z,2164
2017-07-25T06:04:15.353Z,2200
2017-07-25T06:05:24.610Z,2232
2017-07-25T06:06:33.818Z,2264
2017-07-25T06:07:43.350Z,2236
2017-07-25T06:08:52.886Z,2220
2017-07-25T06:10:02.419Z,2144
2017-07-25T06:11:12.423Z,2112
2017-07-25T06:12:21.960Z,2072
2017-07-25T06:13:31.816Z,2068
2017-07-25T06:14:41.350Z,2068
2017-07-25T06:15:51.197Z,2212
2017-07-25T06:17:00.603Z,2356
2017-07-25T06:18:10.459Z,2520
2017-07-25T06:19:19.664Z,2660
2017-07-25T06:20:29.216Z,2664
2017-07-25T06:21:38.419Z,2624
2017-07-25T06:22:47.635Z,2600
2017-07-25T06:23:56.843Z,2620
2017-07-25T06:25:06.048Z,2756
2017-07-25T06:26:14.932Z,2868
2017-07-25T06:27:24.458Z,2892
2017-07-25T06:28:33.773Z,2772
2017-07-25T06:29:42.653Z,2664
2017-07-25T06:30:51.857Z,2856
2017-07-25T06:32:01.709Z,3036
2017-07-25T06:33:10.921Z,2852
2017-07-25T06:34:20.449Z,2536
2017-07-25T06:35:29.653Z,2900
2017-07-25T06:36:39.508Z,2968
2017-07-25T06:37:48.391Z,3036
2017-07-25T06:38:57.601Z,3108
2017-07-25T06:40:07.139Z,3200
2017-07-25T06:41:17.004Z,3344
2017-07-25T06:42:26.219Z,3428
2017-07-25T06:43:35.754Z,3516
2017-07-25T06:44:45.288Z,3572
2017-07-25T06:45:54.501Z,3600
2017-07-25T06:47:03.706Z,3612
2017-07-25T06:48:12.917Z,3600
2017-07-25T06:49:22.447Z,3628
2017-07-25T06:50:31.990Z,3740
2017-07-25T06:51:41.520Z,3780
2017-07-25T06:52:51.057Z,3760
2017-07-25T06:54:00.926Z,3712
2017-07-25T06:55:09.813Z,3928
2017-07-25T06:56:19.346Z,3960
2017-07-25T06:57:28.875Z,4176
2017-07-25T06:58:38.085Z,4324
2017-07-25T06:59:47.445Z,4444
2017-07-25T07:00:56.650Z,4564
2017-07-25T07:02:07.157Z,4812
2017-07-25T07:03:16.376Z,4920
2017-07-25T07:04:25.910Z,4908
2017-07-25T07:05:35.782Z,5212
2017-07-25T07:06:44.989Z,5348
2017-07-25T07:07:54.845Z,5812
2017-07-25T07:09:04.390Z,5916
2017-07-25T07:10:13.932Z,6104
2017-07-25T07:11:23.937Z,5956
2017-07-25T07:12:33.244Z,5108
2017-07-25T07:13:42.714Z,5540
2017-07-25T07:14:51.640Z,5132
2017-07-25T07:16:00.519Z,4768
2017-07-25T07:17:09.788Z,4680
2017-07-25T07:18:19.314Z,4276
2017-07-25T07:19:28.846Z,4864
2017-07-25T07:20:38.052Z,4592
2017-07-25T07:21:46.935Z,4200
2017-07-25T07:22:56.956Z,3840
2017-07-25T07:24:06.485Z,3512
2017-07-25T07:25:16.018Z,3180
2017-07-25T07:26:25.258Z,2888
2017-07-25T07:27:34.551Z,2728
2017-07-25T07:28:43.839Z,2728
2017-07-25T07:29:53.369Z,2788
2017-07-25T07:31:02.282Z,2736
2017-07-25T07:32:12.467Z,2844
2017-07-25T07:33:22.565Z,3124
2017-07-25T07:34:32.305Z,3216
2017-07-25T07:35:41.542Z,3356
2017-07-25T07:36:50.767Z,3484
2017-07-25T07:37:59.671Z,3464
2017-07-25T07:39:08.883Z,3336
2017-07-25T07:40:18.717Z,3140
2017-07-25T07:41:27.926Z,3184
2017-07-25T07:42:37.134Z,3132
2017-07-25T07:43:46.345Z,3100
2017-07-25T07:44:55.549Z,3020
2017-07-25T07:46:05.401Z,3036
2017-07-25T07:47:14.934Z,3556
2017-07-25T07:48:24.491Z,3800
2017-07-25T07:49:33.702Z,3888
2017-07-25T07:50:42.937Z,3020
2017-07-25T07:51:52.404Z,3376
2017-07-25T07:53:01.614Z,3316
2017-07-25T07:54:11.152Z,3628
2017-07-25T07:55:20.678Z,4092
2017-07-25T07:56:29.887Z,3540
2017-07-25T07:57:39.263Z,4168
2017-07-25T07:58:48.469Z,4244
2017-07-25T07:59:57.352Z,3888
2017-07-25T08:01:06.885Z,3592
2017-07-25T08:02:16.416Z,3564
2017-07-25T08:03:25.452Z,3424
2017-07-25T08:04:34.997Z,2864
2017-07-25T08:05:43.880Z,3276
2017-07-25T08:06:53.091Z,3564
2017-07-25T08:08:02.631Z,3056
2017-07-25T08:09:11.993Z,3060
2017-07-25T08:10:21.850Z,3120
2017-07-25T08:11:31.052Z,3116
2017-07-25T08:12:40.262Z,2956
2017-07-25T08:13:49.790Z,2848
2017-07-25T08:14:59.198Z,3456
2017-07-25T08:16:08.094Z,3556
2017-07-25T08:17:16.987Z,3176
2017-07-25T08:18:26.536Z,3760
2017-07-25T08:19:35.430Z,3832
2017-07-25T08:20:44.973Z,3756
2017-07-25T08:21:54.181Z,3632
2017-07-25T08:23:03.724Z,3852
2017-07-25T08:24:12.939Z,4216
2017-07-25T08:25:22.798Z,4352
2017-07-25T08:26:32.373Z,4596
2017-07-25T08:27:42.227Z,4776
2017-07-25T08:28:51.764Z,4852
2017-07-25T08:30:00.654Z,4716
2017-07-25T08:31:10.186Z,5132
2017-07-25T08:32:20.289Z,4888
2017-07-25T08:33:29.820Z,4028
2017-07-25T08:34:39.038Z,5068
2017-07-25T08:35:48.252Z,5004
2017-07-25T08:36:57.143Z,4948
2017-07-25T08:38:06.400Z,4988
2017-07-25T08:39:15.608Z,4720
2017-07-25T08:40:24.818Z,4752
2017-07-25T08:41:34.034Z,4552
2017-07-25T08:42:43.241Z,4688
2017-07-25T08:43:52.632Z,4308
2017-07-25T08:45:01.839Z,3960
2017-07-25T08:46:11.693Z,4064
2017-07-25T08:47:20.588Z,4108
2017-07-25T08:48:30.446Z,4112
2017-07-25T08:49:39.975Z,4360
2017-07-25T08:50:49.505Z,4544
2017-07-25T08:51:58.713Z,3968
2017-07-25T08:53:08.245Z,4704
2017-07-25T08:54:17.135Z,4612
2017-07-25T08:55:27.188Z,4552
2017-07-25T08:56:36.397Z,4120
2017-07-25T08:57:46.249Z,3640
2017-07-25T08:58:55.787Z,3704
2017-07-25T09:00:04.997Z,4292
2017-07-25T09:01:15.209Z,4300
2017-07-25T09:02:24.776Z,4136
2017-07-25T09:03:33.986Z,4084
2017-07-25T09:04:43.196Z,3968
2017-07-25T09:05:52.407Z,3836
2017-07-25T09:07:01.822Z,3824
2017-07-25T09:08:11.040Z,3496
2017-07-25T09:09:20.273Z,4416
2017-07-25T09:10:30.131Z,5056
2017-07-25T09:11:39.986Z,4692
2017-07-25T09:12:49.246Z,4976
2017-07-25T09:13:58.456Z,4836
2017-07-25T09:15:07.666Z,4928
2017-07-25T09:16:16.872Z,4640
2017-07-25T09:17:26.404Z,3920
2017-07-25T09:18:35.600Z,4220
2017-07-25T09:19:44.488Z,4344
2017-07-25T09:20:53.727Z,3912
2017-07-25T09:22:02.618Z,4684
2017-07-25T09:23:12.525Z,5156
2017-07-25T09:24:22.493Z,5672
2017-07-25T09:25:31.426Z,5924
2017-07-25T09:26:41.326Z,4400
2017-07-25T09:27:50.871Z,4884
2017-07-25T09:29:00.447Z,4268
2017-07-25T09:30:10.175Z,4152
2017-07-25T09:31:19.765Z,3996
2017-07-25T09:32:28.999Z,3280
2017-07-25T09:33:38.550Z,2988
2017-07-25T09:34:48.081Z,2076
2017-07-25T09:35:57.626Z,3492
2017-07-25T09:37:06.531Z,4900
2017-07-25T09:38:15.428Z,2776
2017-07-25T09:39:24.315Z,3280
2017-07-25T09:40:33.203Z,3924
2017-07-25T09:41:42.410Z,4368
2017-07-25T09:42:51.304Z,5268
2017-07-25T09:44:00.516Z,6200
2017-07-25T09:45:09.724Z,5240
2017-07-25T09:46:18.618Z,4772
2017-07-25T09:47:27.937Z,6480
2017-07-25T09:48:37.143Z,7048
2017-07-25T09:49:46.033Z,6816
2017-07-25T09:50:55.569Z,6276
2017-07-25T09:52:04.778Z,7176
2017-07-25T09:53:14.415Z,6808
2017-07-25T09:54:23.955Z,7004
2017-07-25T09:55:33.166Z,7484
2017-07-25T09:56:42.395Z,7992
2017-07-25T09:57:51.278Z,7680
2017-07-25T09:59:00.593Z,7296
2017-07-25T10:00:09.803Z,5684
2017-07-25T10:01:19.732Z,7488
2017-07-25T10:02:29.287Z,6708
2017-07-25T10:03:38.493Z,7144
2017-07-25T10:04:47.790Z,7056
2017-07-25T10:05:58.005Z,7472
2017-07-25T10:07:07.325Z,7364
2017-07-25T10:08:16.546Z,5840
2017-07-25T10:09:26.145Z,7060
2017-07-25T10:10:35.779Z,6588
2017-07-25T10:11:45.308Z,6928
2017-07-25T10:12:54.851Z,5348
2017-07-25T10:14:04.720Z,3948
2017-07-25T10:15:14.255Z,4616
2017-07-25T10:16:24.036Z,4336
2017-07-25T10:17:33.567Z,4528
2017-07-25T10:18:42.775Z,6544
2017-07-25T10:19:51.664Z,6216
2017-07-25T10:21:01.241Z,5328
2017-07-25T10:22:10.224Z,7620
2017-07-25T10:23:19.820Z,7864
2017-07-25T10:24:29.420Z,6048
2017-07-25T10:25:39.741Z,5232
2017-07-25T10:26:48.652Z,4532
2017-07-25T10:27:58.001Z,5080
2017-07-25T10:29:07.583Z,7712
2017-07-25T10:30:16.792Z,8544
2017-07-25T10:31:25.689Z,8628
2017-07-25T10:32:34.903Z,9276
2017-07-25T10:33:44.270Z,9140
2017-07-25T10:34:53.153Z,10036
2017-07-25T10:36:02.692Z,10552
2017-07-25T10:37:12.224Z,10768
2017-07-25T10:38:21.438Z,10680
2017-07-25T10:39:30.856Z,10912
2017-07-25T10:40:40.130Z,11024
2017-07-25T10:41:51.039Z,10960
2017-07-25T10:43:00.715Z,11184
2017-07-25T10:44:10.000Z,11212
2017-07-25T10:45:19.194Z,10884
2017-07-25T10:46:28.396Z,10768
2017-07-25T10:47:38.001Z,11452
2017-07-25T10:48:47.749Z,11552
2017-07-25T10:49:57.018Z,11796
2017-07-25T10:51:06.678Z,11704
2017-07-25T10:52:16.281Z,10616
2017-07-25T10:53:26.143Z,7256
2017-07-25T10:54:35.685Z,9452
2017-07-25T10:55:44.893Z,9700
2017-07-25T10:56:54.252Z,6404
2017-07-25T10:58:03.473Z,7424
2017-07-25T10:59:12.679Z,10028
2017-07-25T11:00:22.216Z,9464
2017-07-25T11:01:31.426Z,7912
2017-07-25T11:02:40.718Z,5996
2017-07-25T11:03:49.938Z,8324
2017-07-25T11:04:59.145Z,9140
2017-07-25T11:06:08.355Z,10436
2017-07-25T11:07:17.890Z,11532
2017-07-25T11:08:27.679Z,11868
2017-07-25T11:09:37.214Z,11060
2017-07-25T11:10:46.421Z,11264
2017-07-25T11:11:55.635Z,12512
2017-07-25T11:13:04.535Z,10764
2017-07-25T11:14:14.269Z,7864
2017-07-25T11:15:23.153Z,6124
2017-07-25T11:16:32.368Z,5944
2017-07-25T11:17:41.257Z,6632
2017-07-25T11:18:50.796Z,11080
2017-07-25T11:20:00.392Z,13924
2017-07-25T11:21:09.947Z,10692
2017-07-25T11:22:19.500Z,8376
2017-07-25T11:23:29.050Z,7556
2017-07-25T11:24:38.008Z,7980
2017-07-25T11:25:47.398Z,5324
2017-07-25T11:26:56.961Z,4828
2017-07-25T11:28:06.886Z,4432
2017-07-25T11:29:15.837Z,6720
2017-07-25T11:30:24.788Z,8748
2017-07-25T11:31:34.208Z,8708
2017-07-25T11:32:43.106Z,6144
2017-07-25T11:33:52.404Z,4700
2017-07-25T11:35:01.653Z,2960
2017-07-25T11:36:11.637Z,1744
2017-07-25T11:37:20.777Z,1916
2017-07-25T11:38:30.053Z,2244
2017-07-25T11:39:38.978Z,2792
2017-07-25T11:40:48.860Z,3292
2017-07-25T11:41:57.741Z,3780
2017-07-25T11:43:07.277Z,4728
2017-07-25T11:44:16.559Z,5872
2017-07-25T11:45:25.848Z,6920
2017-07-25T11:46:34.766Z,8056
2017-07-25T11:47:44.389Z,8972
2017-07-25T11:48:53.364Z,9656
2017-07-25T11:50:02.581Z,10040
2017-07-25T11:51:11.570Z,10040
2017-07-25T11:52:20.464Z,10340
2017-07-25T11:53:29.995Z,10520
2017-07-25T11:54:39.833Z,10728
2017-07-25T11:55:49.366Z,10892
2017-07-25T11:56:58.255Z,11076
2017-07-25T11:58:07.143Z,11140
2017-07-25T11:59:16.351Z,10896
2017-07-25T12:00:26.033Z,10608
2017-07-25T12:01:35.244Z,9016
2017-07-25T12:02:44.848Z,9488
2017-07-25T12:03:54.104Z,10580
2017-07-25T12:05:03.663Z,10620
2017-07-25T12:06:13.347Z,10420
2017-07-25T12:07:22.641Z,10112
2017-07-25T12:08:31.887Z,10748
2017-07-25T12:09:40.824Z,9840
2017-07-25T12:10:50.116Z,10424
2017-07-25T12:11:59.229Z,11216
2017-07-25T12:13:08.837Z,11816
2017-07-25T12:14:17.735Z,11604
2017-07-25T12:15:27.278Z,11796
2017-07-25T12:16:36.814Z,9940
2017-07-25T12:17:46.973Z,12624
2017-07-25T12:18:56.202Z,12844
2017-07-25T12:20:05.846Z,13152
2017-07-25T12:21:15.113Z,12720
2017-07-25T12:22:24.442Z,11532
2017-07-25T12:23:33.909Z,9232
2017-07-25T12:24:43.539Z,7588
2017-07-25T12:25:52.806Z,5368
2017-07-25T12:27:02.093Z,5568
2017-07-25T12:28:11.714Z,5092
2017-07-25T12:29:20.975Z,4664
2017-07-25T12:30:30.900Z,4488
2017-07-25T12:31:39.877Z,4040
2017-07-25T12:32:48.856Z,4404
2017-07-25T12:33:58.406Z,4540
2017-07-25T12:35:07.883Z,4500
2017-07-25T12:36:16.783Z,4608
2017-07-25T12:37:25.678Z,4992
2017-07-25T12:38:35.223Z,5688
2017-07-25T12:39:44.446Z,6168
2017-07-25T12:40:54.003Z,6592
2017-07-25T12:42:04.193Z,6680
2017-07-25T12:43:13.416Z,5740
2017-07-25T12:44:23.273Z,6192
2017-07-25T12:45:32.816Z,5808
2017-07-25T12:46:42.229Z,7800
2017-07-25T12:47:51.117Z,8384
2017-07-25T12:49:00.327Z,7424
2017-07-25T12:50:09.532Z,6800
2017-07-25T12:51:18.750Z,7812
2017-07-25T12:52:27.682Z,7000
2017-07-25T12:53:36.565Z,6968
2017-07-25T12:54:46.099Z,7412
2017-07-25T12:55:56.273Z,7584
2017-07-25T12:57:05.805Z,8012
2017-07-25T12:58:15.861Z,8388
2017-07-25T12:59:25.077Z,7380
2017-07-25T13:00:34.285Z,5816
2017-07-25T13:01:43.492Z,3768
2017-07-25T13:02:52.699Z,4596
2017-07-25T13:04:01.736Z,5424
2017-07-25T13:05:10.997Z,6944
2017-07-25T13:06:19.884Z,6292
2017-07-25T13:07:29.090Z,4500
2017-07-25T13:08:38.625Z,4440
2017-07-25T13:09:48.278Z,6268
2017-07-25T13:10:58.132Z,7236
2017-07-25T13:12:07.341Z,6756
2017-07-25T13:13:17.521Z,6252
2017-07-25T13:14:26.730Z,4780
2017-07-25T13:15:36.410Z,6060
2017-07-25T13:16:45.950Z,5908
2017-07-25T13:17:55.523Z,6300
2017-07-25T13:19:04.414Z,6212
2017-07-25T13:20:13.620Z,5556
2017-07-25T13:21:23.326Z,4388
2017-07-25T13:22:32.540Z,4908
2017-07-25T13:23:41.752Z,4372
2017-07-25T13:24:51.287Z,5760
2017-07-25T13:26:01.150Z,6200
2017-07-25T13:27:10.518Z,6056
2017-07-25T13:28:20.048Z,5932
2017-07-25T13:29:29.598Z,5416
2017-07-25T13:30:39.141Z,5152
2017-07-25T13:31:48.349Z,5140
2017-07-25T13:32:57.712Z,5560
2017-07-25T13:34:06.938Z,5612
2017-07-25T13:35:16.160Z,5484
2017-07-25T13:36:25.370Z,5096
2017-07-25T13:37:34.577Z,4584
2017-07-25T13:38:43.467Z,4296
2017-07-25T13:39:52.679Z,4136
2017-07-25T13:41:02.214Z,2744
2017-07-25T13:42:11.755Z,1488
2017-07-25T13:43:20.964Z,1880
2017-07-25T13:44:30.595Z,2168
2017-07-25T13:45:39.500Z,3488
2017-07-25T13:46:49.048Z,1564
2017-07-25T13:47:58.906Z,2492
2017-07-25T13:49:07.802Z,2824
2017-07-25T13:50:17.500Z,3592
2017-07-25T13:51:27.032Z,4576
2017-07-25T13:52:36.566Z,6096
2017-07-25T13:53:45.790Z,6540
2017-07-25T13:54:55.316Z,6320
2017-07-25T13:56:05.009Z,6172
2017-07-25T13:57:14.278Z,6048
2017-07-25T13:58:23.177Z,5680
2017-07-25T13:59:32.394Z,4672
2017-07-25T14:00:41.610Z,4268
2017-07-25T14:01:52.120Z,4964
2017-07-25T14:03:01.349Z,6172
2017-07-25T14:04:10.885Z,6896
2017-07-25T14:05:20.120Z,6816
2017-07-25T14:06:29.050Z,6336
2017-07-25T14:07:38.309Z,4240
2017-07-25T14:08:47.928Z,4288
2017-07-25T14:09:57.209Z,2976
2017-07-25T14:11:06.492Z,2756
2017-07-25T14:12:15.720Z,2992
2017-07-25T14:13:24.935Z,2052
2017-07-25T14:14:34.139Z,1900
2017-07-25T14:15:43.036Z,1780
2017-07-25T14:16:52.574Z,1552
2017-07-25T14:18:01.461Z,1292
2017-07-25T14:19:10.671Z,1184
2017-07-25T14:20:19.886Z,892
2017-07-25T14:21:29.747Z,948
2017-07-25T14:22:38.957Z,1176
2017-07-25T14:23:47.872Z,1104
2017-07-25T14:24:57.084Z,1376
2017-07-25T14:26:06.943Z,2436
2017-07-25T14:27:16.454Z,2212
2017-07-25T14:28:25.667Z,2424
2017-07-25T14:29:35.199Z,2052
2017-07-25T14:30:44.739Z,1680
2017-07-25T14:31:54.600Z,1672
2017-07-25T14:33:04.945Z,1560
2017-07-25T14:34:14.155Z,1732
2017-07-25T14:35:23.372Z,2264
2017-07-25T14:36:32.906Z,2052
2017-07-25T14:37:42.113Z,1480
2017-07-25T14:38:51.949Z,3012
2017-07-25T14:40:01.159Z,4632
2017-07-25T14:41:10.453Z,3928
2017-07-25T14:42:19.732Z,5612
2017-07-25T14:43:29.393Z,5160
2017-07-25T14:44:38.332Z,4564
2017-07-25T14:45:47.967Z,4960
2017-07-25T14:46:57.609Z,4728
2017-07-25T14:48:07.194Z,4480
2017-07-25T14:49:16.143Z,4868
2017-07-25T14:50:25.823Z,5716
2017-07-25T14:51:35.140Z,6204
2017-07-25T14:52:44.068Z,6292
2017-07-25T14:53:53.356Z,4392
2017-07-25T14:55:02.280Z,4036
2017-07-25T14:56:11.912Z,3020
2017-07-25T14:57:20.859Z,2536
2017-07-25T14:58:30.109Z,1864
2017-07-25T14:59:39.392Z,2196
2017-07-25T15:00:48.355Z,2108
2017-07-25T15:01:58.565Z,1612
2017-07-25T15:03:07.851Z,1712
2017-07-25T15:04:17.792Z,2124
2017-07-25T15:05:27.070Z,2580
2017-07-25T15:06:36.917Z,2256
2017-07-25T15:07:46.070Z,2476
2017-07-25T15:08:55.323Z,2500
2017-07-25T15:10:04.603Z,3948
2017-07-25T15:11:14.212Z,6568
2017-07-25T15:12:24.129Z,6420
2017-07-25T15:13:33.338Z,5104
2017-07-25T15:14:42.888Z,2808
2017-07-25T15:15:52.437Z,3892
2017-07-25T15:17:01.644Z,3044
2017-07-25T15:18:10.860Z,3504
2017-07-25T15:19:20.546Z,4380
2017-07-25T15:20:29.749Z,3848
2017-07-25T15:21:39.282Z,2572
2017-07-25T15:22:48.815Z,3500
2017-07-25T15:23:58.349Z,3432
2017-07-25T15:25:08.542Z,4128
2017-07-25T15:26:18.081Z,3476
2017-07-25T15:27:27.612Z,3136
2017-07-25T15:28:36.828Z,3076
2017-07-25T15:29:45.717Z,3672
2017-07-25T15:30:55.403Z,3388
2017-07-25T15:32:05.264Z,3252
2017-07-25T15:33:14.475Z,3092
2017-07-25T15:34:24.329Z,3008
2017-07-25T15:35:33.210Z,3088
2017-07-25T15:36:42.415Z,2924
2017-07-25T15:37:51.958Z,2976
2017-07-25T15:39:01.497Z,2892
2017-07-25T15:40:10.708Z,2640
2017-07-25T15:41:20.251Z,2464
2017-07-25T15:42:29.135Z,2432
2017-07-25T15:43:38.345Z,2504
2017-07-25T15:44:47.563Z,2528
2017-07-25T15:45:56.453Z,2452
2017-07-25T15:47:05.671Z,2504